66VA weather

Ibm Building 110 Heliport
Manassas, Virginia, United States

Public forecast

Using degrees Fahrenheit for public forecast. Weather courtesy of forecast.io.

Closest aviation weather report (METAR) to Ibm Building 110 Heliport

Closest report is Manassas Regional Airport/Harry P. Davis Field, 2.1 nm (3.9 km) SSW. Retrieved 2020/05/27 21:56 UTC (18 minutes ago):

KHEF 272156Z AUTO 13004KT 10SM SCT055 26/18 A3013 RMK AO2 SLP208 T02560183

Closest aviation forecast (TAF) to Ibm Building 110 Heliport

Closest forecast is Washington Dulles International Airport, 11.6 nm (21.5 km) N. Retrieved 2020/05/27 18:27 UTC (4 hours ago):

TAF KIAD 271725Z 2718/2824 16007KT P6SM BKN035 FM280200 12007KT P6SM OVC020 FM280300 12007KT 4SM -SHRA BR OVC008 FM281500 16009KT P6SM -SHRA OVC008 FM281700 17010G17KT P6SM -SHRA BKN015 FM281800 17011KT P6SM BKN030